Chebanse, IL

4:42 AM CST on January 23, 2017 (GMT -0600)
| | Change Station
Active Advisory: Marine Fog Advisory

Elev -9999 ft 0.00 °N, 0.00 °E | Updated 1 second ago

Overcast
Overcast
°F
Feels Like °F
N
Wind Variable Wind from North
Gusts mph

Today
High -- | Low -- °F
--% Chance of Precip.
Yesterday
High -- | Low -- °F
Precip. -- in
Pressure 29.71 in
Visibility 7.0 miles
Clouds Overcast 700 ft
Dew Point Not available.
Humidity Not available.
Rainfall --
Snow Depth Not available.
7:09 AM 4:58 PM
Waning Crescent, 19% visible
METAR KIKK 231035Z AUTO 34007G15KT 7SM OVC007 04/03 A2971 RMK AO2 T00410027
Pressure 29.71 in
Visibility 7.0 miles
Clouds Overcast 700 ft
Dew Point Not available.
Humidity Not available.
Rainfall --
Snow Depth Not available.
7:09 AM 4:58 PM
Waning Crescent, 19% visible
METAR KIKK 231035Z AUTO 34007G15KT 7SM OVC007 04/03 A2971 RMK AO2 T00410027

Get Your Daily Forecast Email!

Thanks for signing up!

Be on the lookout for a verification email in your inbox.

You'll start receiving the daily forecast at 8 AM.

×

10-Day Weather Forecast

Almanac

Astronomy

Jan. 23, 2017 Rise Set
Actual Time
Civil Twilight
Nautical Twilight
Astronomical Twilight
Moon
Length of Visible Light
Length of Day
Tomorrow will be .
, % of the Moon is Illuminated

Today's Extremes

State Highs State Lows

Community

WunderPhotos

Upload Photos

1,962,540 photos uploaded!

WunderBlog® & News

Nearby

Air Quality

  Air Quality AQ Index Pollutant
Not available.

Snow Depth

Station Depth Elevation

Earthquake Activity

City Distance Mag. Time & Date
Minimum magnitude displayed is 2.5.

Coastal Water Temperatures

Place Temperature

Stations

Nearby Weather Stations

Station Location Temp. Windchill Dew Point Humidity Wind Precip. Elev Updated Type
                   

Watches & Warnings

Marine Fog Advisory
Issued: 3:12 AM CST Jan. 23, 2017 – National Weather Service

... Dense fog advisory remains in effect until 9 am CST this
morning...

* visibility... less than one half mile.

Precautionary/preparedness actions...

A dense fog advisory means visibilities will frequently be
reduced to less than one mile. Inexperienced mariners...
especially those operating smaller vessels should avoid
navigating in these conditions.



Mtf